createdAt,value
2016-11-04T00:02:48.353Z,1008.44
2016-11-04T00:06:25.301Z,1008.42
2016-11-04T00:10:02.815Z,1008.5
2016-11-04T00:13:39.396Z,1008.48
2016-11-04T00:17:16.148Z,1008.33
2016-11-04T00:20:58.995Z,1008.22
2016-11-04T00:24:38.663Z,1008.27
2016-11-04T00:28:22.978Z,1008.34
2016-11-04T00:32:00.373Z,1008.32
2016-11-04T00:36:06.624Z,1008.19
2016-11-04T00:39:51.636Z,1008.22
2016-11-04T00:43:29.944Z,1008.2
2016-11-04T00:47:27.342Z,1008.07
2016-11-04T00:51:04.300Z,1007.94
2016-11-04T00:54:41.292Z,1008.01
2016-11-04T00:58:18.300Z,1008.02
2016-11-04T01:01:55.650Z,1008
2016-11-04T01:05:32.348Z,1008
2016-11-04T01:09:09.344Z,1008
2016-11-04T01:12:46.325Z,1007.93
2016-11-04T01:16:23.369Z,1007.86
2016-11-04T01:20:00.386Z,1007.84
2016-11-04T01:23:37.515Z,1007.75
2016-11-04T01:27:14.424Z,1007.62
2016-11-04T01:30:51.579Z,1007.53
2016-11-04T01:38:43.918Z,1007.48
2016-11-04T01:42:20.302Z,1007.4
2016-11-04T01:45:56.501Z,1007.39
2016-11-04T01:49:33.769Z,1007.33
2016-11-04T01:53:10.020Z,1007.27
2016-11-04T01:56:47.279Z,1007.25
2016-11-04T02:00:23.719Z,1007.28
2016-11-04T02:03:59.841Z,1007.25
2016-11-04T02:07:36.003Z,1007.36
2016-11-04T02:11:12.697Z,1007.25
2016-11-04T02:14:49.218Z,1007.15
2016-11-04T02:18:25.971Z,1007.15
2016-11-04T02:22:02.102Z,1007.1
2016-11-04T02:25:39.448Z,1007.15
2016-11-04T02:34:30.144Z,1007.01
2016-11-04T02:38:07.043Z,1006.84
2016-11-04T02:41:43.516Z,1006.79
2016-11-04T02:45:15.439Z,1006.81
2016-11-04T02:48:52.791Z,1006.82
2016-11-04T02:52:29.291Z,1006.71
2016-11-04T03:00:16.704Z,1006.69
2016-11-04T03:03:52.534Z,1006.63
2016-11-04T03:07:29.490Z,1006.64
2016-11-04T03:11:05.681Z,1006.81
2016-11-04T03:14:43.321Z,1006.89
2016-11-04T03:18:34.089Z,1006.72
2016-11-04T03:22:27.687Z,1006.58
2016-11-04T03:26:04.269Z,1006.64
2016-11-04T03:29:42.397Z,1006.53
2016-11-04T03:41:35.736Z,1006.53
2016-11-04T03:45:12.229Z,1006.48
2016-11-04T03:48:48.289Z,1006.38
2016-11-04T03:52:26.348Z,1006.38
2016-11-04T03:56:03.080Z,1006.37
2016-11-04T03:59:39.831Z,1006.34
2016-11-04T04:07:02.883Z,1006.39
2016-11-04T04:10:39.044Z,1006.4
2016-11-04T04:14:16.260Z,1006.41
2016-11-04T04:17:52.411Z,1006.4
2016-11-04T04:21:29.103Z,1006.28
2016-11-04T04:25:05.459Z,1006.25
2016-11-04T04:28:42.359Z,1006.25
2016-11-04T04:32:18.789Z,1006.16
2016-11-04T04:35:56.297Z,1006.11
2016-11-04T04:39:57.200Z,1006.21
2016-11-04T04:43:34.409Z,1006.15
2016-11-04T04:47:15.666Z,1006.15
2016-11-04T04:50:52.668Z,1006.14
2016-11-04T04:54:33.122Z,1006.09
2016-11-04T04:58:33.306Z,1006.11
2016-11-04T05:02:11.337Z,1006.13
2016-11-04T05:05:48.791Z,1005.95
2016-11-04T05:09:25.782Z,1005.82
2016-11-04T05:13:03.320Z,1005.72
2016-11-04T05:16:42.053Z,1005.67
2016-11-04T05:20:19.006Z,1005.68
2016-11-04T05:23:56.067Z,1005.68
2016-11-04T05:27:33.905Z,1005.57
2016-11-04T05:31:12.076Z,1005.53
2016-11-04T05:34:49.877Z,1005.47
2016-11-04T05:38:26.621Z,1005.38
2016-11-04T05:42:03.597Z,1005.35
2016-11-04T05:45:40.228Z,1005.22
2016-11-04T05:49:17.206Z,1005.31
2016-11-04T05:52:53.363Z,1005.42
2016-11-04T05:56:30.834Z,1005.57
2016-11-04T06:00:07.306Z,1005.62
2016-11-04T06:03:44.205Z,1005.67
2016-11-04T06:07:21.915Z,1005.73
2016-11-04T06:10:58.821Z,1005.71
2016-11-04T06:14:35.512Z,1005.69
2016-11-04T06:18:08.346Z,1005.7
2016-11-04T06:21:44.237Z,1005.72
2016-11-04T06:25:21.141Z,1005.67
2016-11-04T06:28:58.329Z,1005.62
2016-11-04T06:32:35.330Z,1005.66
2016-11-04T06:36:12.137Z,1005.66
2016-11-04T06:39:49.725Z,1005.65
2016-11-04T06:43:26.475Z,1005.52
2016-11-04T06:47:03.401Z,1005.53
2016-11-04T06:50:40.077Z,1005.56
2016-11-04T06:54:17.149Z,1005.61
2016-11-04T06:57:54.223Z,1005.67
2016-11-04T07:01:32.488Z,1005.73
2016-11-04T07:05:08.804Z,1005.81
2016-11-04T07:08:45.992Z,1005.8
2016-11-04T07:12:22.276Z,1005.73
2016-11-04T07:15:59.247Z,1005.66
2016-11-04T07:19:36.475Z,1005.62
2016-11-04T08:01:32.163Z,1005.73
2016-11-04T08:04:49.858Z,1005.67
2016-11-04T08:11:39.202Z,1005.61
2016-11-04T08:18:43.123Z,1005.55
2016-11-04T08:25:31.711Z,1005.36
2016-11-04T08:29:18.252Z,1005.16
2016-11-04T08:36:22.099Z,1005
2016-11-04T08:39:54.056Z,1004.97
2016-11-04T08:46:58.458Z,1005.01
2016-11-04T08:51:00.023Z,1005
2016-11-04T09:05:36.687Z,1004.94
2016-11-04T09:08:53.996Z,1004.88
2016-11-04T09:12:11.361Z,1004.65
2016-11-04T09:15:28.595Z,1004.69
2016-11-04T09:18:45.859Z,1004.69
2016-11-04T09:25:35.571Z,1004.75
2016-11-04T09:28:52.810Z,1004.66
2016-11-04T09:32:10.150Z,1004.61
2016-11-04T09:35:27.481Z,1004.72
2016-11-04T09:39:28.353Z,1004.55
2016-11-04T09:42:45.484Z,1004.57
2016-11-04T09:46:03.015Z,1004.61
2016-11-04T09:49:20.652Z,1004.53
2016-11-04T09:52:38.240Z,1004.34
2016-11-04T09:55:54.961Z,1004.29
2016-11-04T09:59:12.838Z,1004.4
2016-11-04T10:02:30.365Z,1004.49
2016-11-04T10:05:47.315Z,1004.44
2016-11-04T10:09:04.606Z,1004.45
2016-11-04T10:12:21.042Z,1004.49
2016-11-04T10:15:38.737Z,1004.43
2016-11-04T10:18:56.866Z,1004.35
2016-11-04T10:22:14.130Z,1004.33
2016-11-04T10:25:31.173Z,1004.22
2016-11-04T10:28:48.049Z,1004.11
2016-11-04T10:32:05.079Z,1004.18
2016-11-04T10:35:22.617Z,1004.15
2016-11-04T10:38:39.231Z,1004.1
2016-11-04T10:41:55.959Z,1004.08
2016-11-04T10:45:13.063Z,1004.08
2016-11-04T10:48:30.211Z,1003.96
2016-11-04T10:51:47.367Z,1003.71
2016-11-04T10:55:04.098Z,1003.74
2016-11-04T10:58:21.186Z,1003.73
2016-11-04T11:01:38.121Z,1003.7
2016-11-04T11:04:55.215Z,1003.77
2016-11-04T11:08:12.013Z,1003.75
2016-11-04T11:11:28.899Z,1003.72
2016-11-04T11:14:46.116Z,1003.72
2016-11-04T11:18:03.141Z,1003.71
2016-11-04T11:21:20.142Z,1003.56
2016-11-04T11:24:36.976Z,1003.48
2016-11-04T11:27:54.199Z,1003.55
2016-11-04T11:31:10.497Z,1003.49
2016-11-04T11:34:27.663Z,1003.46
2016-11-04T11:37:44.311Z,1003.36
2016-11-04T11:41:01.048Z,1003.24
2016-11-04T11:44:18.030Z,1003.28
2016-11-04T11:47:35.325Z,1003.1
2016-11-04T11:50:51.887Z,1003.16
2016-11-04T11:54:08.800Z,1003.11
2016-11-04T11:57:26.074Z,1003.06
2016-11-04T12:00:42.838Z,1003.05
2016-11-04T12:03:59.815Z,1002.9
2016-11-04T12:07:17.187Z,1002.92
2016-11-04T12:10:34.128Z,1002.99
2016-11-04T12:13:51.080Z,1002.89
2016-11-04T12:17:07.804Z,1002.83
2016-11-04T12:23:56.143Z,1002.75
2016-11-04T12:27:13.834Z,1002.6
2016-11-04T12:30:30.711Z,1002.51
2016-11-04T12:33:47.902Z,1002.43
2016-11-04T12:37:04.534Z,1002.46
2016-11-04T12:40:22.446Z,1002.46
2016-11-04T12:43:38.890Z,1002.42
2016-11-04T12:46:56.364Z,1002.43
2016-11-04T12:50:57.752Z,1002.46
2016-11-04T12:54:30.336Z,1002.42
2016-11-04T12:57:47.266Z,1002.37
2016-11-04T13:01:05.892Z,1002.29
2016-11-04T13:04:52.218Z,1002.24
2016-11-04T13:08:09.202Z,1002.24
2016-11-04T13:11:26.146Z,1002.18
2016-11-04T13:14:44.027Z,1002.27
2016-11-04T13:28:59.126Z,1001.98
2016-11-04T13:32:45.792Z,1001.86
2016-11-04T13:36:17.208Z,1001.88
2016-11-04T13:39:35.041Z,1001.82
2016-11-04T13:42:51.531Z,1001.81
2016-11-04T13:46:08.599Z,1001.73
2016-11-04T13:49:25.360Z,1001.7
2016-11-04T13:56:58.070Z,1001.59
2016-11-04T14:00:15.570Z,1001.6
2016-11-04T14:03:32.780Z,1001.53
2016-11-04T14:06:50.147Z,1001.45
2016-11-04T14:10:07.208Z,1001.47
2016-11-04T14:13:23.966Z,1001.31
2016-11-04T14:16:41.252Z,1001.35
2016-11-04T14:19:58.720Z,1001.31
2016-11-04T14:23:16.263Z,1001.35
2016-11-04T14:26:33.510Z,1001.33
2016-11-04T14:29:50.937Z,1001.27
2016-11-04T14:33:08.086Z,1001.27
2016-11-04T14:36:24.893Z,1001.28
2016-11-04T14:39:41.790Z,1001.27
2016-11-04T14:42:58.690Z,1001.33
2016-11-04T14:46:16.190Z,1001.28
2016-11-04T14:49:32.931Z,1001.22
2016-11-04T14:52:50.390Z,1001.13
2016-11-04T14:56:07.540Z,1001.18
2016-11-04T14:59:25.543Z,1001.18
2016-11-04T15:02:42.964Z,1001.19
2016-11-04T15:06:00.339Z,1001.14
2016-11-04T15:09:17.118Z,1001.07
2016-11-04T15:12:34.389Z,1001.04
2016-11-04T15:15:51.284Z,1000.99
2016-11-04T15:19:08.234Z,1001.01
2016-11-04T15:29:43.906Z,1000.88
2016-11-04T15:37:02.727Z,1000.8
2016-11-04T15:40:49.080Z,1000.74
2016-11-04T15:44:06.429Z,1000.76
2016-11-04T15:47:23.327Z,1000.89
2016-11-04T15:50:40.365Z,1000.82
2016-11-04T15:53:57.319Z,1000.81
2016-11-04T15:57:18.370Z,1000.83
2016-11-04T16:00:37.457Z,1000.86
2016-11-04T16:03:55.255Z,1000.83
2016-11-04T16:37:04.389Z,1000.29
2016-11-04T16:40:40.552Z,1000.17
2016-11-04T16:44:40.683Z,1000.29
2016-11-04T16:48:18.142Z,1000.16
2016-11-04T16:51:54.835Z,1000.2
2016-11-04T16:55:31.627Z,1000.41
2016-11-04T16:59:09.184Z,1000.43
2016-11-04T17:02:45.423Z,1000.61
2016-11-04T17:06:22.191Z,1000.53
2016-11-04T17:09:59.956Z,1000.6
2016-11-04T17:13:36.189Z,1000.74
2016-11-04T17:17:12.963Z,1000.63
2016-11-04T17:20:50.093Z,1000.43
2016-11-04T17:24:28.174Z,1000.26
2016-11-04T17:28:35.882Z,1000.28
2016-11-04T17:33:17.028Z,1000.24
2016-11-04T17:36:54.354Z,1000.13
2016-11-04T17:40:30.907Z,1000.21
2016-11-04T17:44:07.395Z,1000.11
2016-11-04T17:47:43.520Z,1000.05
2016-11-04T17:51:50.501Z,999.97
2016-11-04T17:55:26.716Z,999.94
2016-11-04T17:59:04.060Z,999.86
2016-11-04T18:02:40.158Z,999.8
2016-11-04T18:06:17.233Z,999.69
2016-11-04T18:09:53.667Z,999.66
2016-11-04T18:13:30.764Z,999.47
2016-11-04T18:17:14.279Z,999.5
2016-11-04T18:32:46.207Z,999.34
2016-11-04T18:36:50.702Z,999.25
2016-11-04T18:45:04.305Z,999.05
2016-11-04T18:48:40.273Z,999.05
2016-11-04T18:52:16.401Z,998.9
2016-11-04T18:55:52.348Z,998.85
2016-11-04T18:59:29.190Z,998.84
2016-11-04T19:03:05.372Z,998.83
2016-11-04T19:15:30.110Z,998.59
2016-11-04T19:19:06.160Z,998.61
2016-11-04T19:22:42.753Z,998.69
2016-11-04T19:26:20.200Z,998.54
2016-11-04T19:29:56.689Z,998.57
2016-11-04T19:33:34.230Z,998.36
2016-11-04T19:37:12.049Z,998.28
2016-11-04T19:40:48.761Z,998.12
2016-11-04T19:44:24.592Z,998.17
2016-11-04T19:48:01.100Z,998.06
2016-11-04T19:51:38.406Z,998.04
2016-11-04T19:55:14.891Z,998.04
2016-11-04T19:58:51.960Z,998
2016-11-04T20:02:28.688Z,997.92
2016-11-04T20:06:05.734Z,997.8
2016-11-04T20:09:42.726Z,997.97
2016-11-04T20:13:20.037Z,997.96
2016-11-04T20:17:00.566Z,998.13
2016-11-04T20:20:36.162Z,998.25
2016-11-04T20:24:13.368Z,998.37
2016-11-04T20:27:47.573Z,998.25
2016-11-04T20:31:35.148Z,998.17
2016-11-04T20:35:34.773Z,997.98
2016-11-04T20:39:11.061Z,997.85
2016-11-04T20:42:48.412Z,997.88
2016-11-04T20:46:25.996Z,997.85
2016-11-04T20:56:25.404Z,997.5
2016-11-04T21:00:21.711Z,997.54
2016-11-04T21:03:58.436Z,997.48
2016-11-04T21:08:08.560Z,997.43
2016-11-04T21:12:12.343Z,997.42
2016-11-04T21:15:48.670Z,997.32
2016-11-04T21:19:33.047Z,997.17
2016-11-04T21:23:38.486Z,997.13
2016-11-04T21:27:10.606Z,997.15
2016-11-04T21:30:47.494Z,997.19
2016-11-04T21:34:24.279Z,997.12
2016-11-04T21:38:01.041Z,997.06
2016-11-04T21:41:38.100Z,996.97
2016-11-04T21:49:27.680Z,997.11
2016-11-04T21:53:03.768Z,997.16
2016-11-04T22:26:23.429Z,996.77
2016-11-04T22:30:01.102Z,996.75
2016-11-04T22:43:30.051Z,996.6
2016-11-04T22:46:46.938Z,996.53
2016-11-04T22:50:03.903Z,996.49
2016-11-04T22:53:21.198Z,996.37
2016-11-04T22:56:38.025Z,996.35
2016-11-04T22:59:55.780Z,996.4
2016-11-04T23:03:12.245Z,996.31
2016-11-04T23:06:29.881Z,996.26
2016-11-04T23:09:46.327Z,996.28
2016-11-04T23:13:04.924Z,996.25
2016-11-04T23:16:22.051Z,996.08
2016-11-04T23:19:39.466Z,996.06
2016-11-04T23:22:56.098Z,996.02
2016-11-04T23:26:13.552Z,995.97
2016-11-04T23:29:30.305Z,995.99
2016-11-04T23:32:46.989Z,995.86
2016-11-04T23:36:04.064Z,995.74
2016-11-04T23:39:20.756Z,995.7
2016-11-04T23:42:37.880Z,995.75
2016-11-04T23:45:54.529Z,995.66
2016-11-04T23:49:11.009Z,995.64
2016-11-04T23:52:28.296Z,995.64
2016-11-04T23:55:44.706Z,995.66
2016-11-04T23:59:02.098Z,995.61
